createdAt,value
2018-02-25T00:00:19.075Z,4.83
2018-02-25T00:02:46.931Z,4.20
2018-02-25T00:05:15.041Z,3.62
2018-02-25T00:07:42.706Z,4.07
2018-02-25T00:10:11.359Z,4.57
2018-02-25T00:12:39.023Z,3.63
2018-02-25T00:15:06.855Z,3.97
2018-02-25T00:17:34.500Z,6.27
2018-02-25T00:20:03.146Z,4.73
2018-02-25T00:22:30.770Z,4.07
2018-02-25T00:24:58.477Z,4.27
2018-02-25T00:27:26.085Z,3.60
2018-02-25T00:29:54.329Z,4.80
2018-02-25T00:32:21.990Z,3.60
2018-02-25T00:34:50.654Z,4.18
2018-02-25T00:37:18.273Z,3.70
2018-02-25T00:39:45.939Z,3.22
2018-02-25T00:42:14.129Z,3.37
2018-02-25T00:44:42.119Z,4.15
2018-02-25T00:47:10.482Z,4.35
2018-02-25T00:49:38.142Z,3.33
2018-02-25T00:52:05.772Z,3.17
2018-02-25T00:54:33.425Z,4.20
2018-02-25T00:57:01.053Z,4.53
2018-02-25T00:59:28.725Z,3.27
2018-02-25T01:01:57.144Z,4.00
2018-02-25T01:04:24.766Z,4.43
2018-02-25T01:06:52.430Z,6.63
2018-02-25T01:09:20.050Z,4.68
2018-02-25T01:11:47.707Z,6.10
2018-02-25T01:14:15.331Z,3.77
2018-02-25T01:16:42.985Z,3.85
2018-02-25T01:19:10.782Z,4.70
2018-02-25T01:21:38.433Z,4.33
2018-02-25T01:24:06.090Z,3.37
2018-02-25T01:26:33.749Z,5.13
2018-02-25T01:29:01.371Z,4.30
2018-02-25T01:31:28.997Z,3.50
2018-02-25T01:33:56.659Z,3.80
2018-02-25T01:36:24.273Z,4.00
2018-02-25T01:38:51.925Z,3.80
2018-02-25T01:41:19.542Z,4.37
2018-02-25T01:43:47.201Z,5.37
2018-02-25T01:46:14.859Z,4.30
2018-02-25T01:48:42.517Z,3.95
2018-02-25T01:51:10.133Z,3.53
2018-02-25T01:53:37.803Z,4.95
2018-02-25T01:56:05.433Z,3.55
2018-02-25T01:58:33.080Z,3.97
2018-02-25T02:01:01.498Z,4.22
2018-02-25T02:03:29.286Z,4.03
2018-02-25T02:05:56.949Z,3.22
2018-02-25T02:08:24.565Z,4.07
2018-02-25T02:10:52.182Z,4.30
2018-02-25T02:13:19.837Z,5.30
2018-02-25T02:15:48.265Z,4.17
2018-02-25T02:18:15.876Z,4.20
2018-02-25T02:20:43.491Z,5.00
2018-02-25T02:23:11.161Z,4.22
2018-02-25T02:25:38.814Z,6.00
2018-02-25T02:28:06.802Z,4.30
2018-02-25T02:30:34.426Z,4.87
2018-02-25T02:33:02.089Z,5.82
2018-02-25T02:35:29.901Z,4.97
2018-02-25T02:37:57.664Z,3.83
2018-02-25T02:40:25.285Z,5.43
2018-02-25T02:42:53.407Z,4.68
2018-02-25T02:45:21.787Z,3.50
2018-02-25T02:47:49.468Z,4.07
2018-02-25T02:50:17.302Z,6.35
2018-02-25T02:52:44.954Z,4.22
2018-02-25T02:55:13.373Z,5.30
2018-02-25T02:57:41.294Z,4.10
2018-02-25T03:00:08.969Z,7.93
2018-02-25T03:02:36.629Z,3.70
2018-02-25T03:05:05.072Z,5.05
2018-02-25T03:07:32.692Z,5.47
2018-02-25T03:10:01.120Z,4.87
2018-02-25T03:12:28.784Z,4.73
2018-02-25T03:14:56.402Z,4.80
2018-02-25T03:17:24.049Z,4.87
2018-02-25T03:19:52.430Z,4.63
2018-02-25T03:22:20.853Z,4.07
2018-02-25T03:24:49.350Z,4.60
2018-02-25T03:27:17.006Z,4.60
2018-02-25T03:29:44.628Z,4.37
2018-02-25T03:32:12.295Z,4.68
2018-02-25T03:34:39.918Z,4.13
2018-02-25T03:37:08.338Z,3.50
2018-02-25T03:39:36.757Z,3.87
2018-02-25T03:42:04.409Z,4.10
2018-02-25T03:44:32.522Z,5.33
2018-02-25T03:47:00.384Z,5.50
2018-02-25T03:49:28.037Z,4.50
2018-02-25T03:51:56.465Z,4.30
2018-02-25T03:54:24.127Z,4.37
2018-02-25T03:56:52.355Z,6.70
2018-02-25T03:59:20.061Z,5.10
2018-02-25T04:01:47.915Z,4.40
2018-02-25T04:04:15.581Z,5.10
2018-02-25T04:06:43.189Z,4.07
2018-02-25T04:09:10.854Z,4.43
2018-02-25T04:11:38.472Z,5.20
2018-02-25T04:14:06.102Z,4.75
2018-02-25T04:16:34.218Z,9.43
2018-02-25T04:19:01.865Z,5.03
2018-02-25T04:21:29.529Z,5.53
2018-02-25T04:23:57.195Z,4.93
2018-02-25T04:26:24.831Z,5.10
2018-02-25T04:28:52.446Z,7.50
2018-02-25T04:31:20.277Z,4.57
2018-02-25T04:33:47.930Z,5.03
2018-02-25T04:36:15.580Z,5.60
2018-02-25T04:38:43.238Z,5.30
2018-02-25T04:41:10.906Z,4.90
2018-02-25T04:43:38.520Z,5.23
2018-02-25T04:46:06.181Z,7.53
2018-02-25T04:48:33.998Z,7.30
2018-02-25T04:51:01.766Z,4.90
2018-02-25T04:53:29.381Z,7.68
2018-02-25T04:55:57.054Z,5.60
2018-02-25T04:58:24.675Z,5.30
2018-02-25T05:00:53.034Z,7.00
2018-02-25T05:03:20.653Z,6.03
2018-02-25T05:05:48.326Z,8.02
2018-02-25T05:08:15.989Z,8.80
2018-02-25T05:10:43.608Z,4.97
2018-02-25T05:13:11.853Z,6.12
2018-02-25T05:15:39.504Z,5.28
2018-02-25T05:18:07.125Z,5.00
2018-02-25T05:20:34.830Z,7.00
2018-02-25T05:23:02.453Z,5.50
2018-02-25T05:25:30.117Z,7.97
2018-02-25T05:27:58.453Z,12.03
2018-02-25T05:30:26.873Z,6.73
2018-02-25T05:32:54.526Z,6.12
2018-02-25T05:35:22.197Z,10.40
2018-02-25T05:37:49.852Z,6.63
2018-02-25T05:40:17.505Z,6.45
2018-02-25T05:42:45.181Z,6.27
2018-02-25T05:45:12.801Z,6.10
2018-02-25T05:47:40.421Z,6.22
2018-02-25T05:50:08.078Z,6.93
2018-02-25T05:52:35.834Z,5.30
2018-02-25T05:55:03.490Z,5.55
2018-02-25T05:57:31.144Z,5.97
2018-02-25T05:59:59.514Z,6.28
2018-02-25T06:02:27.180Z,6.53
2018-02-25T06:04:54.793Z,6.55
2018-02-25T06:07:22.450Z,6.90
2018-02-25T06:09:51.479Z,7.30
2018-02-25T06:12:19.698Z,6.73
2018-02-25T06:14:47.354Z,6.25
2018-02-25T06:17:15.084Z,7.07
2018-02-25T06:19:42.913Z,7.43
2018-02-25T06:22:10.532Z,7.30
2018-02-25T06:24:38.187Z,6.10
2018-02-25T06:27:05.823Z,6.70
2018-02-25T06:29:33.814Z,6.65
2018-02-25T06:32:03.149Z,7.47
2018-02-25T06:34:31.528Z,7.97
2018-02-25T06:36:59.225Z,9.47
2018-02-25T06:39:26.881Z,5.80
2018-02-25T06:41:54.506Z,7.32
2018-02-25T06:44:22.922Z,7.80
2018-02-25T06:46:50.537Z,7.37
2018-02-25T06:49:18.206Z,7.77
2018-02-25T06:51:45.865Z,6.07
2018-02-25T06:54:14.267Z,8.32
2018-02-25T06:56:42.057Z,7.90
2018-02-25T06:59:10.446Z,6.93
2018-02-25T07:01:39.012Z,7.70
2018-02-25T07:04:07.188Z,7.20
2018-02-25T07:06:35.490Z,5.73
2018-02-25T07:09:03.459Z,7.80
2018-02-25T07:11:31.976Z,6.87
2018-02-25T07:13:59.609Z,6.95
2018-02-25T07:16:27.846Z,7.13
2018-02-25T07:18:56.196Z,6.40
2018-02-25T07:21:23.984Z,6.45
2018-02-25T07:23:54.421Z,6.47
2018-02-25T07:26:22.788Z,7.27
2018-02-25T07:28:50.404Z,7.37
2018-02-25T07:31:18.064Z,6.62
2018-02-25T07:33:47.117Z,5.55
2018-02-25T07:36:15.518Z,5.47
2018-02-25T07:38:43.143Z,6.00
2018-02-25T07:41:10.803Z,5.80
2018-02-25T07:43:38.469Z,4.83
2018-02-25T07:46:06.137Z,4.40
2018-02-25T07:48:33.756Z,3.47
2018-02-25T07:51:01.378Z,3.58
2018-02-25T07:53:30.134Z,3.57
2018-02-25T07:55:57.860Z,4.10
2018-02-25T07:58:26.329Z,4.45
2018-02-25T08:00:54.902Z,4.50
2018-02-25T08:03:24.074Z,4.12
2018-02-25T08:05:51.877Z,4.22
2018-02-25T08:08:19.990Z,3.97
2018-02-25T08:10:47.647Z,3.10
2018-02-25T08:13:15.274Z,3.43
2018-02-25T08:15:43.406Z,3.20
2018-02-25T08:18:11.042Z,3.47
2018-02-25T08:20:39.453Z,3.97
2018-02-25T08:23:10.541Z,5.13
2018-02-25T08:25:38.785Z,3.37
2018-02-25T08:28:07.000Z,4.93
2018-02-25T08:30:42.745Z,4.12
2018-02-25T08:33:15.860Z,4.30
2018-02-25T08:35:49.581Z,4.43
2018-02-25T08:38:22.975Z,4.05
2018-02-25T08:40:51.010Z,5.55
2018-02-25T08:43:19.230Z,4.45
2018-02-25T08:45:46.890Z,3.10
2018-02-25T08:48:14.552Z,4.25
2018-02-25T08:50:42.229Z,7.73
2018-02-25T08:53:09.882Z,3.50
2018-02-25T08:55:37.603Z,4.28
2018-02-25T08:58:05.255Z,5.23
2018-02-25T09:00:34.683Z,5.85
2018-02-25T09:03:02.352Z,6.00
2018-02-25T09:05:31.778Z,5.97
2018-02-25T09:07:59.929Z,4.12
2018-02-25T09:10:27.554Z,5.00
2018-02-25T09:12:55.312Z,4.20
2018-02-25T09:15:22.973Z,4.93
2018-02-25T09:17:50.625Z,4.22
2018-02-25T09:20:19.087Z,4.48
2018-02-25T09:22:46.706Z,4.32
2018-02-25T09:25:15.536Z,5.60
2018-02-25T09:27:43.162Z,4.65
2018-02-25T09:30:10.826Z,5.43
2018-02-25T09:32:39.004Z,4.28
2018-02-25T09:35:06.616Z,4.00
2018-02-25T09:37:34.969Z,3.83
2018-02-25T09:40:02.577Z,4.03
2018-02-25T09:42:33.530Z,3.57
2018-02-25T09:45:01.144Z,4.17
2018-02-25T09:47:28.905Z,3.90
2018-02-25T09:49:56.551Z,5.10
2018-02-25T09:52:24.245Z,4.10
2018-02-25T09:54:52.893Z,3.72
2018-02-25T09:57:21.073Z,4.05
2018-02-25T09:59:48.702Z,3.42
2018-02-25T10:02:16.365Z,3.92
2018-02-25T10:04:44.705Z,3.95
2018-02-25T10:07:13.050Z,3.53
2018-02-25T10:09:40.666Z,4.10
2018-02-25T10:12:08.325Z,5.12
2018-02-25T10:14:35.978Z,6.30
2018-02-25T10:17:03.644Z,5.12
2018-02-25T10:19:31.309Z,5.00
2018-02-25T10:21:59.714Z,4.13
2018-02-25T10:24:27.381Z,4.95
2018-02-25T10:26:55.612Z,5.40
2018-02-25T10:29:23.283Z,2.85
2018-02-25T10:31:50.941Z,3.60
2018-02-25T10:34:18.633Z,4.90
2018-02-25T10:36:46.285Z,4.00
2018-02-25T10:39:14.748Z,4.77
2018-02-25T10:41:43.342Z,4.60
2018-02-25T10:44:10.965Z,3.90
2018-02-25T10:46:38.613Z,4.40
2018-02-25T10:49:07.738Z,4.57
2018-02-25T10:51:35.397Z,3.73
2018-02-25T10:54:03.809Z,6.17
2018-02-25T10:56:31.560Z,4.80
2018-02-25T10:58:59.342Z,3.37
2018-02-25T11:01:26.965Z,4.57
2018-02-25T11:03:54.582Z,3.70
2018-02-25T11:06:22.249Z,2.70
2018-02-25T11:08:52.757Z,3.30
2018-02-25T11:11:20.378Z,5.33
2018-02-25T11:13:48.038Z,6.20
2018-02-25T11:16:15.670Z,2.90
2018-02-25T11:18:43.333Z,3.72
2018-02-25T11:21:11.515Z,3.77
2018-02-25T11:23:40.014Z,3.40
2018-02-25T11:26:07.629Z,2.87
2018-02-25T11:28:35.293Z,3.27
2018-02-25T11:31:02.914Z,2.80
2018-02-25T11:33:30.689Z,3.37
2018-02-25T11:35:59.241Z,3.05
2018-02-25T11:38:26.863Z,2.78
2018-02-25T11:40:55.938Z,3.22
2018-02-25T11:43:23.585Z,3.15
2018-02-25T11:45:51.202Z,4.00
2018-02-25T11:48:18.854Z,3.72
2018-02-25T11:50:46.573Z,2.70
2018-02-25T11:53:14.218Z,4.67
2018-02-25T11:55:41.850Z,4.47
2018-02-25T11:58:09.510Z,3.83
2018-02-25T12:00:38.294Z,4.48
2018-02-25T12:03:06.390Z,3.47
2018-02-25T12:05:34.011Z,3.30
2018-02-25T12:08:02.432Z,3.83
2018-02-25T12:10:30.066Z,4.18
2018-02-25T12:12:57.970Z,4.07
2018-02-25T12:15:25.601Z,4.45
2018-02-25T12:17:53.361Z,2.80
2018-02-25T12:20:21.878Z,2.74
2018-02-25T12:22:49.498Z,3.20
2018-02-25T12:25:18.653Z,3.08
2018-02-25T12:27:47.088Z,3.00
2018-02-25T12:30:14.998Z,5.30
2018-02-25T12:32:42.962Z,2.17
2018-02-25T12:35:11.728Z,2.40
2018-02-25T12:37:39.358Z,2.55
2018-02-25T12:40:07.029Z,1.53
2018-02-25T12:42:34.682Z,2.28
2018-02-25T12:45:02.337Z,3.47
2018-02-25T12:47:30.115Z,2.17
2018-02-25T12:49:57.826Z,2.67
2018-02-25T12:52:25.456Z,2.53
2018-02-25T12:54:53.129Z,2.37
2018-02-25T12:57:21.509Z,2.93
2018-02-25T12:59:49.126Z,2.93
2018-02-25T13:02:16.773Z,2.40
2018-02-25T13:04:44.431Z,2.70
2018-02-25T13:07:13.788Z,3.27
2018-02-25T13:09:43.727Z,1.63
2018-02-25T13:12:11.474Z,2.83
2018-02-25T13:14:40.571Z,1.50
2018-02-25T13:17:08.293Z,1.43
2018-02-25T13:19:39.763Z,1.60
2018-02-25T13:22:12.312Z,2.40
2018-02-25T13:24:44.147Z,1.90
2018-02-25T13:27:16.949Z,1.87
2018-02-25T13:29:48.980Z,1.92
2018-02-25T13:32:20.344Z,1.48
2018-02-25T13:34:48.983Z,1.63
2018-02-25T13:37:17.206Z,3.23
2018-02-25T13:39:47.784Z,2.03
2018-02-25T13:42:15.811Z,1.27
2018-02-25T13:44:47.281Z,1.30
2018-02-25T13:47:19.724Z,1.87
2018-02-25T13:49:53.155Z,1.67
2018-02-25T13:52:28.342Z,2.10
2018-02-25T13:54:59.705Z,1.10
2018-02-25T13:57:31.273Z,2.03
2018-02-25T14:00:00.386Z,2.40
2018-02-25T14:02:31.089Z,3.30
2018-02-25T14:04:58.738Z,3.62
2018-02-25T14:07:26.948Z,5.30
2018-02-25T14:09:56.298Z,2.23
2018-02-25T14:12:23.924Z,3.80
2018-02-25T14:14:51.593Z,2.60
2018-02-25T14:17:19.211Z,2.20
2018-02-25T14:19:46.864Z,2.70
2018-02-25T14:22:14.543Z,2.30
2018-02-25T14:24:43.144Z,2.75
2018-02-25T14:27:10.771Z,1.60
2018-02-25T14:29:38.431Z,1.90
2018-02-25T14:32:06.107Z,1.90
2018-02-25T14:34:33.768Z,3.42
2018-02-25T14:37:01.631Z,3.53
2018-02-25T14:39:29.245Z,2.73
2018-02-25T14:41:57.029Z,2.70
2018-02-25T14:44:25.007Z,2.67
2018-02-25T14:46:52.776Z,2.80
2018-02-25T14:49:20.754Z,3.78
2018-02-25T14:51:49.832Z,3.13
2018-02-25T14:54:17.820Z,2.75
2018-02-25T14:56:45.581Z,2.08
2018-02-25T14:59:13.238Z,3.35
2018-02-25T15:01:46.449Z,3.28
2018-02-25T15:04:14.397Z,6.85
2018-02-25T15:06:42.117Z,3.12
2018-02-25T15:09:10.097Z,4.53
2018-02-25T15:11:37.749Z,2.70
2018-02-25T15:14:05.366Z,2.70
2018-02-25T15:16:33.017Z,3.40
2018-02-25T15:19:00.871Z,3.33
2018-02-25T15:21:29.533Z,3.60
2018-02-25T15:23:57.814Z,5.73
2018-02-25T15:26:25.541Z,2.83
2018-02-25T15:28:54.677Z,3.17
2018-02-25T15:31:22.670Z,3.43
2018-02-25T15:33:50.356Z,3.83
2018-02-25T15:36:19.078Z,3.23
2018-02-25T15:38:48.119Z,4.27
2018-02-25T15:41:15.840Z,2.97
2018-02-25T15:43:43.842Z,4.93
2018-02-25T15:46:11.674Z,4.03
2018-02-25T15:48:39.290Z,3.53
2018-02-25T15:51:06.947Z,5.43
2018-02-25T15:53:35.169Z,3.20
2018-02-25T15:56:02.822Z,3.50
2018-02-25T15:58:31.107Z,3.87
2018-02-25T16:00:59.563Z,3.58
2018-02-25T16:03:27.178Z,5.27
2018-02-25T16:05:55.620Z,4.17
2018-02-25T16:08:23.234Z,4.77
2018-02-25T16:10:51.974Z,3.90
2018-02-25T16:13:19.829Z,3.60
2018-02-25T16:15:48.211Z,3.50
2018-02-25T16:18:15.910Z,4.73
2018-02-25T16:20:44.294Z,3.58
2018-02-25T16:23:13.530Z,3.93
2018-02-25T16:25:41.176Z,3.77
2018-02-25T16:28:08.833Z,3.35
2018-02-25T16:30:36.449Z,4.47
2018-02-25T16:33:04.122Z,3.90
2018-02-25T16:35:31.777Z,4.07
2018-02-25T16:37:59.435Z,4.13
2018-02-25T16:40:28.912Z,3.28
2018-02-25T16:42:56.587Z,3.97
2018-02-25T16:45:24.249Z,3.90
2018-02-25T16:47:52.094Z,3.33
2018-02-25T16:50:19.751Z,5.20
2018-02-25T16:52:47.424Z,6.10
2018-02-25T16:55:15.684Z,4.45
2018-02-25T16:57:43.553Z,4.40
2018-02-25T17:00:11.214Z,5.30
2018-02-25T17:02:39.081Z,4.05
2018-02-25T17:05:06.743Z,5.03
2018-02-25T17:07:34.366Z,4.78
2018-02-25T17:10:02.498Z,4.17
2018-02-25T17:12:30.109Z,5.53
2018-02-25T17:14:57.764Z,7.82
2018-02-25T17:17:25.470Z,5.90
2018-02-25T17:19:53.120Z,4.80
2018-02-25T17:22:20.772Z,4.97
2018-02-25T17:24:48.419Z,4.62
2018-02-25T17:27:16.034Z,5.00
2018-02-25T17:29:45.097Z,10.50
2018-02-25T17:32:12.715Z,4.03
2018-02-25T17:34:40.525Z,7.70
2018-02-25T17:37:08.166Z,12.03
2018-02-25T17:39:35.787Z,8.32
2018-02-25T17:42:03.438Z,4.03
2018-02-25T17:44:31.269Z,5.10
2018-02-25T17:46:58.932Z,3.63
2018-02-25T17:49:26.553Z,8.00
2018-02-25T17:51:54.248Z,6.50
2018-02-25T17:54:21.862Z,4.57
2018-02-25T17:56:49.518Z,4.53
2018-02-25T17:59:17.133Z,7.83
2018-02-25T18:01:44.803Z,4.68
2018-02-25T18:04:13.225Z,6.80
2018-02-25T18:06:40.873Z,4.97
2018-02-25T18:09:08.675Z,4.50
2018-02-25T18:11:36.291Z,5.70
2018-02-25T18:14:03.959Z,4.70
2018-02-25T18:16:31.950Z,9.03
2018-02-25T18:19:00.241Z,6.13
2018-02-25T18:21:27.861Z,4.50
2018-02-25T18:23:56.935Z,11.70
2018-02-25T18:26:24.565Z,29.80
2018-02-25T18:28:52.414Z,25.00
2018-02-25T18:31:20.761Z,8.60
2018-02-25T18:33:48.416Z,14.40
2018-02-25T18:36:16.032Z,6.77
2018-02-25T18:38:44.418Z,5.75
2018-02-25T18:41:12.034Z,5.28
2018-02-25T18:43:39.689Z,4.20
2018-02-25T18:46:07.961Z,5.50
2018-02-25T18:48:35.667Z,6.50
2018-02-25T18:51:03.311Z,5.57
2018-02-25T18:53:30.970Z,7.63
2018-02-25T18:55:59.462Z,7.53
2018-02-25T18:58:27.118Z,5.10
2018-02-25T19:00:56.587Z,6.12
2018-02-25T19:03:24.372Z,4.53
2018-02-25T19:05:53.803Z,3.53
2018-02-25T19:08:21.477Z,4.62
2018-02-25T19:10:49.862Z,4.03
2018-02-25T19:13:17.499Z,5.80
2018-02-25T19:15:45.248Z,5.68
2018-02-25T19:18:14.052Z,4.23
2018-02-25T19:20:41.727Z,5.22
2018-02-25T19:23:10.723Z,4.80
2018-02-25T19:25:39.837Z,9.60
2018-02-25T19:28:07.459Z,6.62
2018-02-25T19:30:40.718Z,9.10
2018-02-25T19:33:14.815Z,4.00
2018-02-25T19:35:49.464Z,4.27
2018-02-25T19:38:23.410Z,3.42
2018-02-25T19:40:58.660Z,3.62
2018-02-25T19:43:26.385Z,3.47
2018-02-25T19:45:54.252Z,4.27
2018-02-25T19:48:21.905Z,5.17
2018-02-25T19:50:49.553Z,3.83
2018-02-25T19:53:17.416Z,3.70
2018-02-25T19:55:45.038Z,3.70
2018-02-25T19:58:12.649Z,4.13
2018-02-25T20:00:40.302Z,3.93
2018-02-25T20:03:07.917Z,3.93
2018-02-25T20:05:35.569Z,4.03
2018-02-25T20:08:04.030Z,4.07
2018-02-25T20:10:31.761Z,4.32
2018-02-25T20:12:59.377Z,3.70
2018-02-25T20:15:27.027Z,3.93
2018-02-25T20:17:55.234Z,7.17
2018-02-25T20:20:22.889Z,2.72
2018-02-25T20:22:50.542Z,4.65
2018-02-25T20:25:18.206Z,3.80
2018-02-25T20:27:46.068Z,3.60
2018-02-25T20:30:14.337Z,3.58
2018-02-25T20:32:42.150Z,2.50
2018-02-25T20:35:09.806Z,3.33
2018-02-25T20:37:37.466Z,3.12
2018-02-25T20:40:05.856Z,3.25
2018-02-25T20:42:33.517Z,3.55
2018-02-25T20:45:01.168Z,4.18
2018-02-25T20:47:28.837Z,2.67
2018-02-25T20:49:56.445Z,4.25
2018-02-25T20:52:24.068Z,4.07
2018-02-25T20:54:51.727Z,3.47
2018-02-25T20:57:20.115Z,3.20
2018-02-25T20:59:48.809Z,3.53
2018-02-25T21:02:17.197Z,3.67
2018-02-25T21:04:44.867Z,3.25
2018-02-25T21:07:12.546Z,3.60
2018-02-25T21:09:40.434Z,2.80
2018-02-25T21:12:08.094Z,2.92
2018-02-25T21:14:35.737Z,3.13
2018-02-25T21:17:03.396Z,3.72
2018-02-25T21:19:31.060Z,1.90
2018-02-25T21:21:58.673Z,2.90
2018-02-25T21:24:26.289Z,2.63
2018-02-25T21:26:54.293Z,4.35
2018-02-25T21:29:22.562Z,4.30
2018-02-25T21:31:50.196Z,3.10
2018-02-25T21:34:17.858Z,3.50
2018-02-25T21:36:46.985Z,3.63
2018-02-25T21:39:15.633Z,4.00
2018-02-25T21:41:43.284Z,2.75
2018-02-25T21:44:10.901Z,2.70
2018-02-25T21:46:38.702Z,4.17
2018-02-25T21:49:06.316Z,3.50
2018-02-25T21:51:33.925Z,3.17
2018-02-25T21:54:01.598Z,3.03
2018-02-25T21:59:32.626Z,3.58
2018-02-25T22:02:05.794Z,3.13
2018-02-25T22:04:33.454Z,4.85
2018-02-25T22:07:01.079Z,4.13
2018-02-25T22:09:28.734Z,3.70
2018-02-25T22:11:56.832Z,4.37
2018-02-25T22:14:25.453Z,5.90
2018-02-25T22:16:53.326Z,4.93
2018-02-25T22:19:20.973Z,5.68
2018-02-25T22:21:48.597Z,4.25
2018-02-25T22:24:17.065Z,5.68
2018-02-25T22:26:45.450Z,3.45
2018-02-25T22:29:13.117Z,3.80
2018-02-25T22:31:40.739Z,3.65
2018-02-25T22:34:08.353Z,3.87
2018-02-25T22:36:36.001Z,5.75
2018-02-25T22:39:04.381Z,6.00
2018-02-25T22:41:33.017Z,3.03
2018-02-25T22:44:00.670Z,3.90
2018-02-25T22:46:28.282Z,3.93
2018-02-25T22:48:56.879Z,6.57
2018-02-25T22:51:24.494Z,3.63
2018-02-25T22:53:52.142Z,5.40
2018-02-25T22:56:20.295Z,3.77
2018-02-25T22:58:48.513Z,4.07
2018-02-25T23:01:16.835Z,4.23
2018-02-25T23:03:44.453Z,3.73
2018-02-25T23:06:12.870Z,3.30
2018-02-25T23:08:40.538Z,5.82
2018-02-25T23:11:08.145Z,6.47
2018-02-25T23:13:35.766Z,4.35
2018-02-25T23:16:03.453Z,6.83
2018-02-25T23:18:31.306Z,5.97
2018-02-25T23:20:58.954Z,3.45
2018-02-25T23:23:26.607Z,3.30
2018-02-25T23:25:54.261Z,3.45
2018-02-25T23:28:22.553Z,3.27
2018-02-25T23:30:50.784Z,6.03
2018-02-25T23:33:18.469Z,3.30
2018-02-25T23:35:46.085Z,5.50
2018-02-25T23:38:13.736Z,7.03
2018-02-25T23:40:41.358Z,4.07
2018-02-25T23:43:09.015Z,3.40
2018-02-25T23:45:36.629Z,3.90
2018-02-25T23:48:04.295Z,3.33
2018-02-25T23:50:31.906Z,4.00
2018-02-25T23:52:59.760Z,4.57
2018-02-25T23:55:27.985Z,3.67
2018-02-25T23:57:55.633Z,3.00
